createdAt,value
2022-11-19T00:01:22.514Z,11.73
2022-11-19T00:03:52.630Z,12.63
2022-11-19T00:06:22.601Z,12.20
2022-11-19T00:08:49.418Z,10.43
2022-11-19T00:11:41.828Z,12.67
2022-11-19T00:14:13.436Z,11.77
2022-11-19T00:16:40.787Z,10.97
2022-11-19T00:19:07.592Z,9.10
2022-11-19T00:21:34.108Z,10.73
2022-11-19T00:24:00.768Z,9.53
2022-11-19T00:26:27.618Z,11.07
2022-11-19T00:28:55.000Z,8.47
2022-11-19T00:31:21.757Z,8.90
2022-11-19T00:33:50.509Z,7.60
2022-11-19T00:36:17.632Z,7.83
2022-11-19T00:38:44.136Z,9.50
2022-11-19T00:41:11.014Z,6.93
2022-11-19T00:43:46.858Z,7.67
2022-11-19T00:46:27.937Z,7.87
2022-11-19T00:48:56.152Z,8.97
2022-11-19T00:51:24.016Z,12.03
2022-11-19T00:53:51.003Z,9.00
2022-11-19T00:56:19.879Z,8.00
2022-11-19T00:58:48.003Z,9.60
2022-11-19T01:01:16.225Z,10.43
2022-11-19T01:03:45.624Z,9.20
2022-11-19T01:06:17.798Z,8.17
2022-11-19T01:08:46.095Z,8.37
2022-11-19T01:11:22.062Z,7.73
2022-11-19T01:13:49.067Z,8.60
2022-11-19T01:16:25.335Z,11.13
2022-11-19T01:18:52.809Z,8.03
2022-11-19T01:21:23.793Z,7.23
2022-11-19T01:23:50.765Z,7.07
2022-11-19T01:26:17.894Z,11.47
2022-11-19T01:28:45.016Z,9.27
2022-11-19T01:31:23.881Z,8.37
2022-11-19T01:33:50.700Z,8.83
2022-11-19T01:36:23.413Z,8.60
2022-11-19T01:38:51.079Z,8.53
2022-11-19T01:41:30.271Z,5.57
2022-11-19T01:43:58.964Z,8.93
2022-11-19T01:46:28.287Z,7.57
2022-11-19T01:49:01.611Z,12.93
2022-11-19T01:51:46.583Z,9.40
2022-11-19T01:54:21.623Z,10.13
2022-11-19T01:56:48.148Z,12.33
2022-11-19T01:59:18.037Z,9.87
2022-11-19T02:01:46.422Z,9.17
2022-11-19T02:04:14.991Z,7.80
2022-11-19T02:06:42.430Z,12.37
2022-11-19T02:09:08.934Z,8.53
2022-11-19T02:11:53.762Z,8.27
2022-11-19T02:14:42.256Z,7.60
2022-11-19T02:17:20.739Z,7.23
2022-11-19T02:20:33.137Z,8.37
2022-11-19T02:23:17.964Z,9.13
2022-11-19T02:25:47.343Z,9.00
2022-11-19T02:28:34.771Z,7.60
2022-11-19T02:31:24.003Z,6.33
2022-11-19T02:33:55.608Z,9.77
2022-11-19T02:36:26.524Z,9.37
2022-11-19T02:39:17.449Z,7.97
2022-11-19T02:41:52.667Z,9.43
2022-11-19T02:44:43.987Z,8.20
2022-11-19T02:47:15.988Z,7.10
2022-11-19T02:49:47.093Z,10.73
2022-11-19T02:52:18.005Z,7.27
2022-11-19T02:54:44.520Z,9.10
2022-11-19T02:57:13.091Z,8.37
2022-11-19T03:00:05.868Z,6.97
2022-11-19T03:02:55.675Z,9.83
2022-11-19T03:05:27.213Z,8.70
2022-11-19T03:07:53.853Z,8.13
2022-11-19T03:10:23.494Z,8.13
2022-11-19T03:12:55.068Z,9.53
2022-11-19T03:16:05.708Z,7.00
2022-11-19T03:18:39.216Z,7.87
2022-11-19T03:21:19.254Z,7.07
2022-11-19T03:24:00.918Z,8.60
2022-11-19T03:26:46.270Z,11.13
2022-11-19T03:29:14.736Z,10.77
2022-11-19T03:31:47.724Z,8.97
2022-11-19T03:34:17.781Z,9.57
2022-11-19T03:36:47.491Z,6.10
2022-11-19T03:39:17.610Z,11.57
2022-11-19T03:41:48.256Z,7.57
2022-11-19T03:44:33.085Z,7.27
2022-11-19T03:47:07.206Z,11.27
2022-11-19T03:49:37.815Z,6.60
2022-11-19T03:52:12.714Z,6.60
2022-11-19T03:54:40.297Z,6.07
2022-11-19T03:57:09.304Z,8.30
2022-11-19T03:59:35.930Z,6.13
2022-11-19T04:02:08.118Z,7.53
2022-11-19T04:04:37.600Z,7.53
2022-11-19T04:07:11.070Z,8.00
2022-11-19T04:09:39.361Z,10.60
2022-11-19T04:12:08.032Z,7.83
2022-11-19T04:14:34.504Z,8.77
2022-11-19T04:17:01.111Z,12.47
2022-11-19T04:19:27.533Z,7.43
2022-11-19T04:21:53.981Z,9.70
2022-11-19T04:24:20.503Z,7.80
2022-11-19T04:26:46.986Z,11.17
2022-11-19T04:29:13.521Z,9.27
2022-11-19T04:31:40.016Z,19.60
2022-11-19T04:34:06.633Z,9.67
2022-11-19T04:36:33.163Z,7.60
2022-11-19T04:38:59.701Z,8.03
2022-11-19T04:41:26.348Z,7.47
2022-11-19T04:43:52.803Z,8.07
2022-11-19T04:46:19.225Z,10.77
2022-11-19T04:48:45.653Z,7.20
2022-11-19T04:51:12.140Z,7.47
2022-11-19T04:53:38.688Z,10.70
2022-11-19T04:56:05.882Z,8.10
2022-11-19T04:58:32.336Z,8.40
2022-11-19T05:00:58.914Z,13.33
2022-11-19T05:03:25.374Z,8.87
2022-11-19T05:05:51.937Z,9.27
2022-11-19T05:08:18.553Z,7.67
2022-11-19T05:10:45.273Z,10.00
2022-11-19T05:13:11.710Z,9.03
2022-11-19T05:15:38.193Z,6.87
2022-11-19T05:18:04.900Z,9.33
2022-11-19T05:20:31.352Z,10.40
2022-11-19T05:22:57.987Z,8.07
2022-11-19T05:25:24.548Z,8.97
2022-11-19T05:27:50.929Z,7.40
2022-11-19T05:30:17.562Z,7.93
2022-11-19T05:32:43.990Z,7.87
2022-11-19T05:35:10.589Z,9.13
2022-11-19T05:37:36.995Z,7.83
2022-11-19T05:40:03.959Z,9.17
2022-11-19T05:42:30.458Z,7.90
2022-11-19T05:44:56.893Z,8.27
2022-11-19T05:47:23.490Z,9.53
2022-11-19T05:49:49.991Z,11.87
2022-11-19T05:52:16.410Z,18.93
2022-11-19T05:54:42.886Z,19.30
2022-11-19T05:57:09.288Z,15.03
2022-11-19T05:59:42.253Z,15.10
2022-11-19T06:02:10.267Z,9.87
2022-11-19T06:04:36.682Z,8.33
2022-11-19T06:07:03.135Z,7.00
2022-11-19T06:09:30.896Z,8.33
2022-11-19T06:11:57.464Z,6.87
2022-11-19T06:14:25.402Z,6.23
2022-11-19T06:16:54.426Z,7.47
2022-11-19T06:19:21.728Z,8.97
2022-11-19T06:21:48.547Z,9.43
2022-11-19T06:24:15.580Z,8.40
2022-11-19T06:26:42.976Z,8.50
2022-11-19T06:29:10.562Z,8.13
2022-11-19T06:31:37.065Z,10.60
2022-11-19T06:34:03.519Z,9.27
2022-11-19T06:36:37.335Z,7.70
2022-11-19T06:39:05.763Z,7.13
2022-11-19T06:41:32.229Z,9.43
2022-11-19T06:43:58.628Z,9.53
2022-11-19T06:46:25.194Z,8.47
2022-11-19T06:48:51.637Z,10.17
2022-11-19T06:51:18.084Z,8.07
2022-11-19T06:53:44.488Z,10.43
2022-11-19T06:56:10.975Z,10.23
2022-11-19T06:58:37.472Z,7.90
2022-11-19T07:01:04.183Z,9.53
2022-11-19T07:03:30.684Z,8.63
2022-11-19T07:05:59.881Z,10.60
2022-11-19T07:08:27.024Z,9.03
2022-11-19T07:10:54.386Z,9.60
2022-11-19T07:13:20.812Z,9.13
2022-11-19T07:15:47.284Z,6.37
2022-11-19T07:18:14.321Z,5.87
2022-11-19T07:20:41.365Z,5.70
2022-11-19T07:23:10.942Z,7.97
2022-11-19T07:25:37.902Z,7.00
2022-11-19T07:28:04.621Z,10.03
2022-11-19T07:30:31.377Z,8.33
2022-11-19T07:32:58.213Z,7.47
2022-11-19T07:35:24.841Z,13.30
2022-11-19T07:37:51.405Z,14.00
2022-11-19T07:40:17.889Z,11.47
2022-11-19T07:42:50.264Z,11.67
2022-11-19T07:45:18.820Z,41.50
2022-11-19T07:47:45.370Z,21.50
2022-11-19T07:50:12.287Z,29.40
2022-11-19T07:52:38.779Z,17.50
2022-11-19T07:55:06.289Z,11.03
2022-11-19T07:57:32.799Z,5.87
2022-11-19T07:59:59.225Z,11.03
2022-11-19T08:02:25.958Z,10.47
2022-11-19T08:04:52.371Z,12.77
2022-11-19T08:07:18.844Z,7.30
2022-11-19T08:09:45.402Z,7.97
2022-11-19T08:12:11.869Z,9.60
2022-11-19T08:14:38.258Z,7.00
2022-11-19T08:17:23.389Z,6.37
2022-11-19T08:19:49.797Z,6.17
2022-11-19T08:22:16.198Z,6.47
2022-11-19T08:24:42.716Z,4.90
2022-11-19T08:27:09.128Z,4.70
2022-11-19T08:29:35.547Z,7.50
2022-11-19T08:32:01.934Z,6.10
2022-11-19T08:34:28.501Z,5.33
2022-11-19T08:36:54.948Z,4.23
2022-11-19T08:39:21.372Z,6.43
2022-11-19T08:42:06.525Z,3.80
2022-11-19T08:44:32.959Z,6.67
2022-11-19T08:46:59.342Z,4.10
2022-11-19T08:49:25.756Z,6.87
2022-11-19T08:51:52.420Z,4.47
2022-11-19T08:54:19.239Z,4.53
2022-11-19T08:56:45.906Z,5.23
2022-11-19T08:59:12.325Z,4.57
2022-11-19T09:01:39.555Z,4.60
2022-11-19T09:04:06.047Z,4.03
2022-11-19T09:06:35.705Z,3.33
2022-11-19T09:09:03.683Z,4.07
2022-11-19T09:11:30.740Z,4.07
2022-11-19T09:13:58.129Z,6.77
2022-11-19T09:16:24.742Z,6.10
2022-11-19T09:18:51.203Z,5.30
2022-11-19T09:21:17.706Z,5.27
2022-11-19T09:23:44.186Z,6.37
2022-11-19T09:26:15.796Z,7.60
2022-11-19T09:28:43.335Z,4.80
2022-11-19T09:31:16.189Z,4.57
2022-11-19T09:33:45.734Z,5.80
2022-11-19T09:36:13.128Z,7.83
2022-11-19T09:38:40.794Z,8.43
2022-11-19T09:41:13.233Z,4.67
2022-11-19T09:44:01.378Z,5.90
2022-11-19T09:46:43.656Z,8.13
2022-11-19T09:49:13.831Z,6.17
2022-11-19T09:51:46.253Z,9.67
2022-11-19T09:54:17.562Z,8.77
2022-11-19T09:56:51.333Z,6.27
2022-11-19T09:59:33.181Z,6.70
2022-11-19T10:01:59.669Z,6.17
2022-11-19T10:04:29.750Z,6.57
2022-11-19T10:07:06.486Z,7.30
2022-11-19T10:10:00.492Z,6.80
2022-11-19T10:12:33.037Z,7.07
2022-11-19T10:15:16.269Z,9.90
2022-11-19T10:18:11.299Z,7.40
2022-11-19T10:21:01.367Z,8.13
2022-11-19T10:24:00.617Z,6.83
2022-11-19T10:26:35.033Z,4.43
2022-11-19T10:29:03.603Z,4.03
2022-11-19T10:31:35.926Z,4.30
2022-11-19T10:34:07.484Z,4.00
2022-11-19T10:36:50.438Z,4.17
2022-11-19T10:39:23.170Z,5.07
2022-11-19T10:41:55.468Z,3.10
2022-11-19T10:44:47.874Z,3.13
2022-11-19T10:47:22.771Z,4.17
2022-11-19T10:49:58.347Z,3.40
2022-11-19T10:52:27.906Z,3.97
2022-11-19T10:55:00.672Z,3.57
2022-11-19T10:57:31.542Z,3.43
2022-11-19T10:59:58.501Z,3.53
2022-11-19T11:02:31.765Z,3.63
2022-11-19T11:05:03.964Z,4.20
2022-11-19T11:07:51.327Z,5.87
2022-11-19T11:10:27.409Z,3.43
2022-11-19T11:13:16.629Z,3.57
2022-11-19T11:15:50.432Z,3.70
2022-11-19T11:18:19.126Z,3.80
2022-11-19T11:20:51.253Z,4.57
2022-11-19T11:23:25.215Z,3.77
2022-11-19T11:25:59.708Z,3.30
2022-11-19T11:28:26.185Z,2.97
2022-11-19T11:30:55.489Z,4.87
2022-11-19T11:33:24.909Z,3.77
2022-11-19T11:35:54.958Z,3.20
2022-11-19T11:38:26.961Z,3.20
2022-11-19T11:44:02.900Z,3.37
2022-11-19T11:46:40.878Z,3.73
2022-11-19T11:49:20.638Z,3.23
2022-11-19T11:51:55.008Z,2.80
2022-11-19T11:54:22.012Z,3.97
2022-11-19T11:56:48.490Z,3.00
2022-11-19T11:59:23.868Z,4.10
2022-11-19T12:02:05.624Z,2.20
2022-11-19T12:04:32.773Z,1.70
2022-11-19T12:07:17.531Z,2.43
2022-11-19T12:09:43.953Z,4.10
2022-11-19T12:12:35.827Z,2.77
2022-11-19T12:15:16.954Z,2.63
2022-11-19T12:17:52.673Z,3.57
2022-11-19T12:20:39.120Z,2.60
2022-11-19T12:23:05.588Z,2.97
2022-11-19T12:25:41.489Z,2.57
2022-11-19T12:28:24.066Z,2.70
2022-11-19T12:31:11.725Z,2.10
2022-11-19T12:34:13.453Z,2.87
2022-11-19T12:37:08.195Z,5.30
2022-11-19T12:40:03.921Z,2.43
2022-11-19T12:42:52.908Z,2.10
2022-11-19T12:45:38.045Z,2.20
2022-11-19T12:48:55.773Z,6.93
2022-11-19T12:51:44.524Z,2.37
2022-11-19T12:54:48.097Z,2.93
2022-11-19T12:57:33.300Z,2.23
2022-11-19T13:00:05.740Z,2.80
2022-11-19T13:02:43.678Z,2.20
2022-11-19T13:05:26.189Z,3.13
2022-11-19T13:07:59.143Z,1.97
2022-11-19T13:10:32.940Z,3.13
2022-11-19T13:13:01.089Z,2.00
2022-11-19T13:15:39.161Z,2.30
2022-11-19T13:18:13.959Z,1.97
2022-11-19T13:21:01.516Z,2.17
2022-11-19T13:23:39.439Z,1.97
2022-11-19T13:26:11.164Z,2.13
2022-11-19T13:28:44.188Z,1.27
2022-11-19T13:31:28.066Z,2.27
2022-11-19T13:34:12.748Z,1.40
2022-11-19T13:36:47.972Z,1.27
2022-11-19T13:39:50.569Z,1.60
2022-11-19T13:42:39.039Z,1.73
2022-11-19T13:45:06.813Z,2.23
2022-11-19T13:48:25.681Z,3.27
2022-11-19T13:50:56.887Z,2.97
2022-11-19T13:53:41.010Z,3.00
2022-11-19T13:56:13.922Z,2.57
2022-11-19T13:58:47.554Z,2.97
2022-11-19T14:01:38.459Z,4.03
2022-11-19T14:04:40.057Z,2.10
2022-11-19T14:07:35.906Z,2.90
2022-11-19T14:10:10.605Z,3.53
2022-11-19T14:12:52.140Z,4.17
2022-11-19T14:15:56.320Z,6.00
2022-11-19T14:18:55.854Z,3.77
2022-11-19T14:21:43.847Z,3.17
2022-11-19T14:24:44.114Z,3.60
2022-11-19T14:27:34.314Z,3.27
2022-11-19T14:30:12.410Z,4.00
2022-11-19T14:32:48.606Z,4.70
2022-11-19T14:35:27.097Z,3.97
2022-11-19T14:38:13.553Z,3.60
2022-11-19T14:40:43.649Z,4.10
2022-11-19T14:43:35.167Z,4.03
2022-11-19T14:46:10.404Z,4.13
2022-11-19T14:48:39.914Z,2.70
2022-11-19T14:51:10.719Z,3.30
2022-11-19T14:53:48.333Z,3.87
2022-11-19T14:56:17.077Z,3.53
2022-11-19T14:58:53.704Z,4.07
2022-11-19T15:01:21.862Z,2.47
2022-11-19T15:03:53.470Z,2.83
2022-11-19T15:06:20.826Z,3.23
2022-11-19T15:08:58.957Z,4.33
2022-11-19T15:11:57.424Z,3.23
2022-11-19T15:14:29.836Z,2.50
2022-11-19T15:16:59.482Z,2.00
2022-11-19T15:19:38.789Z,2.67
2022-11-19T15:22:26.636Z,3.30
2022-11-19T15:25:09.927Z,4.60
2022-11-19T15:27:52.245Z,4.17
2022-11-19T15:30:42.258Z,3.63
2022-11-19T15:33:08.695Z,5.97
2022-11-19T15:36:02.931Z,3.00
2022-11-19T15:38:36.973Z,4.47
2022-11-19T15:41:05.011Z,5.17
2022-11-19T15:43:40.100Z,6.23
2022-11-19T15:46:21.596Z,6.13
2022-11-19T15:49:04.549Z,6.50
2022-11-19T15:51:53.207Z,6.90
2022-11-19T15:54:26.750Z,5.63
2022-11-19T15:56:57.998Z,5.07
2022-11-19T15:59:25.326Z,4.93
2022-11-19T16:02:03.754Z,5.53
2022-11-19T16:04:36.360Z,5.63
2022-11-19T16:07:05.816Z,7.40
2022-11-19T16:09:33.118Z,6.57
2022-11-19T16:12:19.837Z,7.10
2022-11-19T16:15:10.061Z,7.50
2022-11-19T16:17:46.098Z,9.13
2022-11-19T16:20:12.579Z,8.97
2022-11-19T16:22:53.399Z,8.27
2022-11-19T16:25:29.231Z,7.30
2022-11-19T16:27:58.270Z,8.73
2022-11-19T16:30:27.909Z,10.37
2022-11-19T16:32:59.159Z,11.13
2022-11-19T16:35:31.566Z,10.07
2022-11-19T16:38:00.145Z,10.67
2022-11-19T16:40:48.113Z,10.60
2022-11-19T16:43:15.048Z,10.70
2022-11-19T16:45:44.861Z,12.30
2022-11-19T16:48:51.827Z,13.23
2022-11-19T16:51:52.642Z,11.67
2022-11-19T16:54:48.581Z,12.63
2022-11-19T16:57:19.681Z,11.13
2022-11-19T16:59:52.732Z,8.03
2022-11-19T17:02:21.677Z,7.40
2022-11-19T17:04:50.720Z,9.53
2022-11-19T17:07:24.569Z,7.90
2022-11-19T17:10:08.971Z,9.67
2022-11-19T17:12:37.100Z,10.30
2022-11-19T17:15:42.901Z,8.27
2022-11-19T17:18:27.229Z,8.97
2022-11-19T17:20:58.857Z,9.07
2022-11-19T17:23:28.248Z,10.13
2022-11-19T17:26:00.017Z,7.30
2022-11-19T17:28:35.919Z,8.03
2022-11-19T17:31:06.299Z,8.90
2022-11-19T17:33:36.579Z,6.83
2022-11-19T17:36:03.561Z,7.67
2022-11-19T17:38:32.276Z,8.27
2022-11-19T17:41:01.236Z,7.40
2022-11-19T17:43:46.389Z,7.90
2022-11-19T17:46:12.852Z,6.93
2022-11-19T17:48:41.136Z,6.73
2022-11-19T17:51:11.732Z,6.07
2022-11-19T17:53:38.129Z,5.50
2022-11-19T17:56:05.705Z,5.60
2022-11-19T17:58:32.177Z,5.23
2022-11-19T18:00:58.571Z,6.00
2022-11-19T18:03:24.994Z,4.83
2022-11-19T18:05:51.589Z,5.80
2022-11-19T18:08:18.158Z,5.97
2022-11-19T18:10:47.323Z,6.60
2022-11-19T18:13:18.951Z,6.87
2022-11-19T18:15:45.371Z,6.73
2022-11-19T18:18:11.772Z,6.10
2022-11-19T18:20:38.372Z,6.37
2022-11-19T18:23:05.021Z,7.37
2022-11-19T18:25:31.630Z,5.93
2022-11-19T18:27:58.037Z,5.50
2022-11-19T18:30:24.607Z,5.07
2022-11-19T18:32:51.078Z,4.83
2022-11-19T18:35:19.723Z,5.40
2022-11-19T18:37:46.547Z,5.40
2022-11-19T18:40:14.564Z,5.87
2022-11-19T18:43:00.662Z,6.07
2022-11-19T18:45:27.412Z,5.73
2022-11-19T18:47:53.833Z,4.23
2022-11-19T18:50:20.316Z,4.63
2022-11-19T18:52:46.801Z,5.23
2022-11-19T18:55:13.314Z,5.40
2022-11-19T18:57:39.774Z,4.37
2022-11-19T19:00:07.198Z,4.40
2022-11-19T19:02:35.810Z,5.60
2022-11-19T19:05:02.660Z,4.17
2022-11-19T19:07:29.082Z,3.60
2022-11-19T19:09:55.681Z,5.30
2022-11-19T19:12:22.263Z,3.70
2022-11-19T19:14:51.440Z,4.20
2022-11-19T19:17:18.555Z,4.33
2022-11-19T19:19:45.318Z,5.70
2022-11-19T19:22:11.909Z,5.73
2022-11-19T19:24:38.454Z,5.60
2022-11-19T19:27:05.309Z,4.70
2022-11-19T19:29:31.766Z,4.13
2022-11-19T19:31:58.493Z,3.90
2022-11-19T19:34:25.068Z,4.93
2022-11-19T19:36:53.640Z,4.37
2022-11-19T19:39:20.565Z,6.77
2022-11-19T19:41:47.180Z,5.10
2022-11-19T19:44:13.594Z,4.00
2022-11-19T19:46:40.164Z,3.33
2022-11-19T19:49:06.664Z,2.90
2022-11-19T19:51:33.088Z,3.00
2022-11-19T19:54:00.137Z,2.97
2022-11-19T19:56:29.329Z,2.30
2022-11-19T19:58:57.219Z,2.80
2022-11-19T20:01:26.418Z,2.80
2022-11-19T20:03:54.816Z,3.07
2022-11-19T20:06:23.509Z,3.90
2022-11-19T20:08:50.403Z,2.73
2022-11-19T20:11:19.457Z,4.63
2022-11-19T20:13:47.562Z,2.53
2022-11-19T20:16:21.777Z,2.50
2022-11-19T20:18:49.920Z,2.87
2022-11-19T20:21:19.868Z,3.93
2022-11-19T20:23:47.109Z,3.20
2022-11-19T20:26:22.150Z,3.77
2022-11-19T20:28:53.538Z,4.80
2022-11-19T20:31:20.650Z,4.67
2022-11-19T20:33:52.136Z,4.53
2022-11-19T20:36:18.655Z,4.23
2022-11-19T20:38:47.846Z,3.63
2022-11-19T20:41:34.481Z,5.07
2022-11-19T20:44:20.652Z,3.27
2022-11-19T20:46:52.690Z,3.13
2022-11-19T20:49:21.630Z,4.20
2022-11-19T20:51:48.381Z,5.90
2022-11-19T20:54:15.335Z,3.93
2022-11-19T20:56:42.183Z,4.83
2022-11-19T20:59:09.717Z,4.60
2022-11-19T21:01:38.760Z,3.90
2022-11-19T21:04:05.478Z,5.63
2022-11-19T21:06:32.434Z,5.43
2022-11-19T21:08:58.898Z,6.87
2022-11-19T21:11:25.456Z,6.30
2022-11-19T21:13:52.591Z,5.63
2022-11-19T21:16:24.655Z,6.33
2022-11-19T21:18:52.327Z,6.20
2022-11-19T21:21:20.962Z,6.60
2022-11-19T21:23:47.421Z,6.20
2022-11-19T21:26:19.810Z,5.63
2022-11-19T21:28:49.035Z,6.03
2022-11-19T21:31:16.857Z,5.43
2022-11-19T21:33:43.436Z,5.20
2022-11-19T21:36:10.188Z,5.67
2022-11-19T21:38:36.580Z,5.67
2022-11-19T21:41:03.714Z,7.70
2022-11-19T21:43:30.883Z,6.13
2022-11-19T21:45:57.566Z,6.27
2022-11-19T21:48:25.255Z,5.90
2022-11-19T21:50:52.606Z,5.70
2022-11-19T21:53:19.323Z,7.50
2022-11-19T21:55:46.383Z,5.77
2022-11-19T21:58:14.908Z,7.67
2022-11-19T22:00:42.384Z,6.63
2022-11-19T22:03:08.848Z,9.20
2022-11-19T22:05:35.615Z,6.80
2022-11-19T22:08:02.310Z,7.60
2022-11-19T22:10:29.719Z,6.97
2022-11-19T22:12:59.340Z,5.47
2022-11-19T22:15:26.895Z,6.90
2022-11-19T22:17:53.845Z,5.30
2022-11-19T22:20:20.360Z,5.70
2022-11-19T22:22:46.907Z,6.80
2022-11-19T22:25:14.337Z,5.60
2022-11-19T22:27:41.601Z,4.40
2022-11-19T22:30:10.243Z,5.20
2022-11-19T22:32:37.056Z,4.93
2022-11-19T22:35:04.801Z,4.33
2022-11-19T22:37:31.883Z,4.57
2022-11-19T22:39:58.391Z,4.40
2022-11-19T22:42:24.843Z,4.87
2022-11-19T22:44:51.592Z,4.90
2022-11-19T22:47:18.037Z,4.70
2022-11-19T22:49:44.530Z,12.57
2022-11-19T22:52:10.961Z,12.50
2022-11-19T22:54:41.448Z,12.83
2022-11-19T22:57:08.381Z,10.23
2022-11-19T22:59:34.946Z,6.47
2022-11-19T23:02:01.653Z,5.13
2022-11-19T23:04:28.926Z,3.37
2022-11-19T23:06:55.672Z,4.57
2022-11-19T23:09:22.576Z,3.73
2022-11-19T23:12:08.091Z,4.57
2022-11-19T23:14:34.469Z,3.90
2022-11-19T23:17:00.972Z,4.43
2022-11-19T23:19:27.367Z,2.93
2022-11-19T23:21:53.795Z,4.00
2022-11-19T23:24:20.332Z,3.93
2022-11-19T23:26:46.875Z,4.30
2022-11-19T23:29:13.345Z,3.87
2022-11-19T23:31:40.585Z,3.20
2022-11-19T23:34:07.835Z,3.63
2022-11-19T23:36:37.439Z,3.30
2022-11-19T23:39:05.387Z,3.17
2022-11-19T23:41:33.667Z,4.80
2022-11-19T23:44:00.962Z,5.60
2022-11-19T23:46:29.875Z,5.37
2022-11-19T23:48:58.045Z,6.43
2022-11-19T23:51:35.584Z,5.00
2022-11-19T23:54:02.784Z,5.03
2022-11-19T23:56:31.585Z,4.63
2022-11-19T23:59:00.450Z,6.70
